sensor_id;sensor_type;location;lat;lon;timestamp;temperature;humidity
9699;DHT22;10089;47.876;8.346;2023-06-24T00:01:25;13.60;99.90
9699;DHT22;10089;47.876;8.346;2023-06-24T00:03:51;13.80;99.90
9699;DHT22;10089;47.876;8.346;2023-06-24T00:06:19;14.50;99.90
9699;DHT22;10089;47.876;8.346;2023-06-24T00:08:49;14.30;99.90
9699;DHT22;10089;47.876;8.346;2023-06-24T00:11:15;13.80;99.90
9699;DHT22;10089;47.876;8.346;2023-06-24T00:13:42;15.00;99.90
9699;DHT22;10089;47.876;8.346;2023-06-24T00:16:08;13.80;99.90
9699;DHT22;10089;47.876;8.346;2023-06-24T00:18:34;13.70;99.90
9699;DHT22;10089;47.876;8.346;2023-06-24T00:21:00;13.70;99.90
9699;DHT22;10089;47.876;8.346;2023-06-24T00:23:28;14.60;99.90
9699;DHT22;10089;47.876;8.346;2023-06-24T00:25:56;13.60;99.90
9699;DHT22;10089;47.876;8.346;2023-06-24T00:28:22;15.40;99.90
9699;DHT22;10089;47.876;8.346;2023-06-24T00:30:48;13.40;99.90
9699;DHT22;10089;47.876;8.346;2023-06-24T00:33:14;13.20;99.90
9699;DHT22;10089;47.876;8.346;2023-06-24T00:35:41;13.30;99.90
9699;DHT22;10089;47.876;8.346;2023-06-24T00:38:08;13.30;99.90
9699;DHT22;10089;47.876;8.346;2023-06-24T00:40:34;15.00;99.90
9699;DHT22;10089;47.876;8.346;2023-06-24T00:43:00;13.10;99.90
9699;DHT22;10089;47.876;8.346;2023-06-24T00:45:27;13.20;99.90
9699;DHT22;10089;47.876;8.346;2023-06-24T00:47:55;14.60;99.90
9699;DHT22;10089;47.876;8.346;2023-06-24T00:50:22;14.40;99.90
9699;DHT22;10089;47.876;8.346;2023-06-24T00:52:47;13.90;99.90
9699;DHT22;10089;47.876;8.346;2023-06-24T00:55:16;13.00;99.90
9699;DHT22;10089;47.876;8.346;2023-06-24T00:57:44;12.80;99.90
9699;DHT22;10089;47.876;8.346;2023-06-24T01:00:11;12.70;99.90
9699;DHT22;10089;47.876;8.346;2023-06-24T01:02:41;12.70;99.90
9699;DHT22;10089;47.876;8.346;2023-06-24T01:05:08;14.00;99.90
9699;DHT22;10089;47.876;8.346;2023-06-24T01:07:35;12.70;99.90
9699;DHT22;10089;47.876;8.346;2023-06-24T01:10:05;13.40;99.90
9699;DHT22;10089;47.876;8.346;2023-06-24T01:12:37;12.60;99.90
9699;DHT22;10089;47.876;8.346;2023-06-24T01:15:10;14.70;99.90
9699;DHT22;10089;47.876;8.346;2023-06-24T01:17:49;12.50;99.90
9699;DHT22;10089;47.876;8.346;2023-06-24T01:20:45;14.30;99.90
9699;DHT22;10089;47.876;8.346;2023-06-24T01:33:57;12.40;99.90
9699;DHT22;10089;47.876;8.346;2023-06-24T01:36:25;12.40;99.90
9699;DHT22;10089;47.876;8.346;2023-06-24T01:39:08;12.40;99.90
9699;DHT22;10089;47.876;8.346;2023-06-24T01:41:40;12.50;99.90
9699;DHT22;10089;47.876;8.346;2023-06-24T01:44:07;12.50;99.90
9699;DHT22;10089;47.876;8.346;2023-06-24T01:46:36;12.30;99.90
9699;DHT22;10089;47.876;8.346;2023-06-24T01:49:04;12.50;99.90
9699;DHT22;10089;47.876;8.346;2023-06-24T01:51:34;14.50;99.90
9699;DHT22;10089;47.876;8.346;2023-06-24T01:54:04;12.30;99.90
9699;DHT22;10089;47.876;8.346;2023-06-24T01:56:32;12.60;99.90
9699;DHT22;10089;47.876;8.346;2023-06-24T01:59:02;12.40;99.90
9699;DHT22;10089;47.876;8.346;2023-06-24T02:01:31;12.30;99.90
9699;DHT22;10089;47.876;8.346;2023-06-24T02:03:58;13.90;99.90
9699;DHT22;10089;47.876;8.346;2023-06-24T02:06:26;14.00;99.90
9699;DHT22;10089;47.876;8.346;2023-06-24T02:08:54;14.90;99.90
9699;DHT22;10089;47.876;8.346;2023-06-24T02:11:23;11.90;99.90
9699;DHT22;10089;47.876;8.346;2023-06-24T02:13:51;11.90;99.90
9699;DHT22;10089;47.876;8.346;2023-06-24T02:16:18;12.10;99.90
9699;DHT22;10089;47.876;8.346;2023-06-24T02:18:45;12.10;99.90
9699;DHT22;10089;47.876;8.346;2023-06-24T02:21:14;14.20;99.90
9699;DHT22;10089;47.876;8.346;2023-06-24T02:23:42;13.10;99.90
9699;DHT22;10089;47.876;8.346;2023-06-24T02:26:09;14.30;99.90
9699;DHT22;10089;47.876;8.346;2023-06-24T02:28:35;13.90;99.90
9699;DHT22;10089;47.876;8.346;2023-06-24T02:31:03;12.00;99.90
9699;DHT22;10089;47.876;8.346;2023-06-24T02:33:29;12.30;99.90
9699;DHT22;10089;47.876;8.346;2023-06-24T02:35:55;12.40;99.90
9699;DHT22;10089;47.876;8.346;2023-06-24T02:38:21;13.30;99.90
9699;DHT22;10089;47.876;8.346;2023-06-24T02:40:47;11.90;99.90
9699;DHT22;10089;47.876;8.346;2023-06-24T02:43:13;12.00;99.90
9699;DHT22;10089;47.876;8.346;2023-06-24T02:45:39;12.00;99.90
9699;DHT22;10089;47.876;8.346;2023-06-24T02:48:06;12.00;99.90
9699;DHT22;10089;47.876;8.346;2023-06-24T02:50:33;12.00;99.90
9699;DHT22;10089;47.876;8.346;2023-06-24T02:52:59;11.90;99.90
9699;DHT22;10089;47.876;8.346;2023-06-24T02:55:26;11.90;99.90
9699;DHT22;10089;47.876;8.346;2023-06-24T02:57:52;11.90;99.90
9699;DHT22;10089;47.876;8.346;2023-06-24T03:00:19;11.80;99.90
9699;DHT22;10089;47.876;8.346;2023-06-24T03:02:46;11.90;99.90
9699;DHT22;10089;47.876;8.346;2023-06-24T03:05:16;11.70;99.90
9699;DHT22;10089;47.876;8.346;2023-06-24T03:07:42;12.20;99.90
9699;DHT22;10089;47.876;8.346;2023-06-24T03:10:08;12.00;99.90
9699;DHT22;10089;47.876;8.346;2023-06-24T03:12:36;11.70;99.90
9699;DHT22;10089;47.876;8.346;2023-06-24T03:15:01;13.30;99.90
9699;DHT22;10089;47.876;8.346;2023-06-24T03:17:27;11.60;99.90
9699;DHT22;10089;47.876;8.346;2023-06-24T03:19:53;13.70;99.90
9699;DHT22;10089;47.876;8.346;2023-06-24T03:22:21;11.60;99.90
9699;DHT22;10089;47.876;8.346;2023-06-24T03:24:46;11.50;99.90
9699;DHT22;10089;47.876;8.346;2023-06-24T03:27:12;11.40;99.90
9699;DHT22;10089;47.876;8.346;2023-06-24T03:29:38;11.60;99.90
9699;DHT22;10089;47.876;8.346;2023-06-24T03:32:04;11.60;99.90
9699;DHT22;10089;47.876;8.346;2023-06-24T03:34:29;11.70;99.90
9699;DHT22;10089;47.876;8.346;2023-06-24T03:36:55;11.70;99.90
9699;DHT22;10089;47.876;8.346;2023-06-24T03:39:21;11.60;99.90
9699;DHT22;10089;47.876;8.346;2023-06-24T03:41:47;11.50;99.90
9699;DHT22;10089;47.876;8.346;2023-06-24T03:44:12;11.70;99.90
9699;DHT22;10089;47.876;8.346;2023-06-24T03:46:38;11.60;99.90
9699;DHT22;10089;47.876;8.346;2023-06-24T03:49:04;11.70;99.90
9699;DHT22;10089;47.876;8.346;2023-06-24T03:51:30;11.70;99.90
9699;DHT22;10089;47.876;8.346;2023-06-24T03:53:56;13.80;99.90
9699;DHT22;10089;47.876;8.346;2023-06-24T03:56:22;11.60;99.90
9699;DHT22;10089;47.876;8.346;2023-06-24T03:58:48;11.60;99.90
9699;DHT22;10089;47.876;8.346;2023-06-24T04:01:13;12.60;99.90
9699;DHT22;10089;47.876;8.346;2023-06-24T04:03:39;13.80;99.90
9699;DHT22;10089;47.876;8.346;2023-06-24T04:06:05;11.60;99.90
9699;DHT22;10089;47.876;8.346;2023-06-24T04:08:30;11.80;99.90
9699;DHT22;10089;47.876;8.346;2023-06-24T04:10:57;11.60;99.90
9699;DHT22;10089;47.876;8.346;2023-06-24T04:13:25;11.80;99.90
9699;DHT22;10089;47.876;8.346;2023-06-24T04:15:51;11.80;99.90
9699;DHT22;10089;47.876;8.346;2023-06-24T04:18:19;11.80;99.90
9699;DHT22;10089;47.876;8.346;2023-06-24T04:20:45;12.70;99.90
9699;DHT22;10089;47.876;8.346;2023-06-24T04:23:12;11.90;99.90
9699;DHT22;10089;47.876;8.346;2023-06-24T04:25:39;11.80;99.90
9699;DHT22;10089;47.876;8.346;2023-06-24T04:28:05;14.70;99.90
9699;DHT22;10089;47.876;8.346;2023-06-24T04:30:32;11.80;99.90
9699;DHT22;10089;47.876;8.346;2023-06-24T04:32:57;12.00;99.90
9699;DHT22;10089;47.876;8.346;2023-06-24T04:35:24;13.20;99.90
9699;DHT22;10089;47.876;8.346;2023-06-24T04:37:49;12.40;99.90
9699;DHT22;10089;47.876;8.346;2023-06-24T04:40:17;12.50;99.90
9699;DHT22;10089;47.876;8.346;2023-06-24T04:42:43;13.10;99.90
9699;DHT22;10089;47.876;8.346;2023-06-24T04:45:09;12.50;99.90
9699;DHT22;10089;47.876;8.346;2023-06-24T04:47:34;12.70;99.90
9699;DHT22;10089;47.876;8.346;2023-06-24T04:50:00;14.00;99.90
9699;DHT22;10089;47.876;8.346;2023-06-24T04:52:26;14.50;99.90
9699;DHT22;10089;47.876;8.346;2023-06-24T04:54:51;13.60;99.90
9699;DHT22;10089;47.876;8.346;2023-06-24T04:57:27;13.30;99.90
9699;DHT22;10089;47.876;8.346;2023-06-24T04:59:53;13.70;99.90
9699;DHT22;10089;47.876;8.346;2023-06-24T05:02:19;13.90;99.90
9699;DHT22;10089;47.876;8.346;2023-06-24T05:04:44;14.40;99.90
9699;DHT22;10089;47.876;8.346;2023-06-24T05:07:10;14.70;2.30
9699;DHT22;10089;47.876;8.346;2023-06-24T05:09:36;15.60;17.20
9699;DHT22;10089;47.876;8.346;2023-06-24T05:12:07;17.80;1.00
9699;DHT22;10089;47.876;8.346;2023-06-24T05:14:36;15.70;1.00
9699;DHT22;10089;47.876;8.346;2023-06-24T05:17:05;16.30;1.00
9699;DHT22;10089;47.876;8.346;2023-06-24T05:19:31;15.10;1.00
9699;DHT22;10089;47.876;8.346;2023-06-24T05:21:58;16.40;1.00
9699;DHT22;10089;47.876;8.346;2023-06-24T05:24:24;16.50;1.00
9699;DHT22;10089;47.876;8.346;2023-06-24T05:26:50;18.60;55.20
9699;DHT22;10089;47.876;8.346;2023-06-24T05:29:17;17.10;99.90
9699;DHT22;10089;47.876;8.346;2023-06-24T05:31:42;19.00;99.90
9699;DHT22;10089;47.876;8.346;2023-06-24T05:34:08;19.50;1.00
9699;DHT22;10089;47.876;8.346;2023-06-24T05:36:34;19.90;96.30
9699;DHT22;10089;47.876;8.346;2023-06-24T05:39:00;18.70;99.90
9699;DHT22;10089;47.876;8.346;2023-06-24T05:41:26;19.10;1.00
9699;DHT22;10089;47.876;8.346;2023-06-24T05:44:11;18.50;99.90
9699;DHT22;10089;47.876;8.346;2023-06-24T05:46:37;19.00;1.00
9699;DHT22;10089;47.876;8.346;2023-06-24T05:49:03;20.40;1.00
9699;DHT22;10089;47.876;8.346;2023-06-24T05:51:29;19.00;99.90
9699;DHT22;10089;47.876;8.346;2023-06-24T05:53:54;19.70;1.00
9699;DHT22;10089;47.876;8.346;2023-06-24T05:56:21;20.40;1.00
9699;DHT22;10089;47.876;8.346;2023-06-24T05:58:48;20.10;88.50
9699;DHT22;10089;47.876;8.346;2023-06-24T06:01:13;20.50;1.00
9699;DHT22;10089;47.876;8.346;2023-06-24T06:03:39;19.70;1.00
9699;DHT22;10089;47.876;8.346;2023-06-24T06:06:05;20.20;99.90
9699;DHT22;10089;47.876;8.346;2023-06-24T06:08:30;20.20;99.90
9699;DHT22;10089;47.876;8.346;2023-06-24T06:10:56;20.30;1.00
9699;DHT22;10089;47.876;8.346;2023-06-24T06:13:22;21.30;1.00
9699;DHT22;10089;47.876;8.346;2023-06-24T06:15:47;21.10;1.00
9699;DHT22;10089;47.876;8.346;2023-06-24T06:18:13;20.80;1.00
9699;DHT22;10089;47.876;8.346;2023-06-24T06:20:39;20.60;1.00
9699;DHT22;10089;47.876;8.346;2023-06-24T06:23:04;20.20;99.90
9699;DHT22;10089;47.876;8.346;2023-06-24T06:25:30;20.40;99.30
9699;DHT22;10089;47.876;8.346;2023-06-24T06:27:55;20.90;1.00
9699;DHT22;10089;47.876;8.346;2023-06-24T06:30:21;21.00;1.00
9699;DHT22;10089;47.876;8.346;2023-06-24T06:32:47;20.60;99.90
9699;DHT22;10089;47.876;8.346;2023-06-24T06:35:12;21.20;99.90
9699;DHT22;10089;47.876;8.346;2023-06-24T06:37:38;21.70;99.90
9699;DHT22;10089;47.876;8.346;2023-06-24T06:40:04;22.00;1.00
9699;DHT22;10089;47.876;8.346;2023-06-24T06:42:30;21.40;1.00
9699;DHT22;10089;47.876;8.346;2023-06-24T06:44:55;21.80;1.00
9699;DHT22;10089;47.876;8.346;2023-06-24T06:47:22;21.80;99.90
9699;DHT22;10089;47.876;8.346;2023-06-24T06:49:48;22.00;42.80
9699;DHT22;10089;47.876;8.346;2023-06-24T06:52:14;22.10;1.00
9699;DHT22;10089;47.876;8.346;2023-06-24T06:54:39;22.60;1.00
9699;DHT22;10089;47.876;8.346;2023-06-24T06:57:05;22.50;1.00
9699;DHT22;10089;47.876;8.346;2023-06-24T06:59:31;22.70;1.00
9699;DHT22;10089;47.876;8.346;2023-06-24T07:01:57;22.90;1.00
9699;DHT22;10089;47.876;8.346;2023-06-24T07:04:23;23.00;1.00
9699;DHT22;10089;47.876;8.346;2023-06-24T07:06:49;23.70;1.00
9699;DHT22;10089;47.876;8.346;2023-06-24T07:09:15;22.80;1.00
9699;DHT22;10089;47.876;8.346;2023-06-24T07:11:43;22.10;1.00
9699;DHT22;10089;47.876;8.346;2023-06-24T07:14:09;22.10;1.00
9699;DHT22;10089;47.876;8.346;2023-06-24T07:16:36;21.70;99.90
9699;DHT22;10089;47.876;8.346;2023-06-24T07:19:02;22.20;99.90
9699;DHT22;10089;47.876;8.346;2023-06-24T07:21:27;22.40;1.00
9699;DHT22;10089;47.876;8.346;2023-06-24T07:23:53;22.90;1.00
9699;DHT22;10089;47.876;8.346;2023-06-24T07:26:19;23.50;1.00
9699;DHT22;10089;47.876;8.346;2023-06-24T07:28:45;23.50;1.00
9699;DHT22;10089;47.876;8.346;2023-06-24T07:31:11;23.00;1.00
9699;DHT22;10089;47.876;8.346;2023-06-24T07:33:37;23.20;1.00
9699;DHT22;10089;47.876;8.346;2023-06-24T07:36:02;23.20;1.00
9699;DHT22;10089;47.876;8.346;2023-06-24T07:38:29;23.20;1.00
9699;DHT22;10089;47.876;8.346;2023-06-24T07:40:55;22.40;1.00
9699;DHT22;10089;47.876;8.346;2023-06-24T07:43:21;22.00;1.00
9699;DHT22;10089;47.876;8.346;2023-06-24T07:45:47;22.60;1.00
9699;DHT22;10089;47.876;8.346;2023-06-24T07:48:12;23.30;1.00
9699;DHT22;10089;47.876;8.346;2023-06-24T07:50:39;23.70;1.00
9699;DHT22;10089;47.876;8.346;2023-06-24T07:53:04;23.40;1.00
9699;DHT22;10089;47.876;8.346;2023-06-24T07:55:30;22.80;1.00
9699;DHT22;10089;47.876;8.346;2023-06-24T07:57:56;23.40;1.00
9699;DHT22;10089;47.876;8.346;2023-06-24T08:00:23;23.40;1.00
9699;DHT22;10089;47.876;8.346;2023-06-24T08:02:50;23.00;1.00
9699;DHT22;10089;47.876;8.346;2023-06-24T08:05:15;23.60;1.00
9699;DHT22;10089;47.876;8.346;2023-06-24T08:07:43;23.80;1.00
9699;DHT22;10089;47.876;8.346;2023-06-24T08:10:09;23.30;1.00
9699;DHT22;10089;47.876;8.346;2023-06-24T08:12:35;23.50;1.00
9699;DHT22;10089;47.876;8.346;2023-06-24T08:15:01;23.70;1.00
9699;DHT22;10089;47.876;8.346;2023-06-24T08:17:26;23.40;1.00
9699;DHT22;10089;47.876;8.346;2023-06-24T08:19:52;24.00;1.00
9699;DHT22;10089;47.876;8.346;2023-06-24T08:22:17;23.90;1.00
9699;DHT22;10089;47.876;8.346;2023-06-24T08:24:43;23.40;1.00
9699;DHT22;10089;47.876;8.346;2023-06-24T08:27:09;23.90;1.00
9699;DHT22;10089;47.876;8.346;2023-06-24T08:29:34;23.60;1.00
9699;DHT22;10089;47.876;8.346;2023-06-24T08:32:00;23.80;1.00
9699;DHT22;10089;47.876;8.346;2023-06-24T08:34:26;23.80;1.00
9699;DHT22;10089;47.876;8.346;2023-06-24T08:36:52;22.40;1.00
9699;DHT22;10089;47.876;8.346;2023-06-24T08:39:17;23.10;1.00
9699;DHT22;10089;47.876;8.346;2023-06-24T08:41:43;23.60;1.00
9699;DHT22;10089;47.876;8.346;2023-06-24T08:44:09;23.80;1.00
9699;DHT22;10089;47.876;8.346;2023-06-24T08:46:35;23.20;1.00
9699;DHT22;10089;47.876;8.346;2023-06-24T08:51:59;24.20;1.00
9699;DHT22;10089;47.876;8.346;2023-06-24T08:54:26;24.50;99.90
9699;DHT22;10089;47.876;8.346;2023-06-24T08:56:52;24.20;99.90
9699;DHT22;10089;47.876;8.346;2023-06-24T08:59:18;24.30;99.90
9699;DHT22;10089;47.876;8.346;2023-06-24T09:01:49;24.00;99.90
9699;DHT22;10089;47.876;8.346;2023-06-24T09:04:15;24.20;99.90
9699;DHT22;10089;47.876;8.346;2023-06-24T09:06:41;24.30;99.90
9699;DHT22;10089;47.876;8.346;2023-06-24T09:09:18;24.70;99.90
9699;DHT22;10089;47.876;8.346;2023-06-24T09:11:54;25.00;99.90
9699;DHT22;10089;47.876;8.346;2023-06-24T09:14:21;23.40;99.90
9699;DHT22;10089;47.876;8.346;2023-06-24T09:16:57;23.60;1.00
9699;DHT22;10089;47.876;8.346;2023-06-24T09:19:25;24.00;99.90
9699;DHT22;10089;47.876;8.346;2023-06-24T09:21:53;24.20;99.90
9699;DHT22;10089;47.876;8.346;2023-06-24T09:24:19;24.80;99.90
9699;DHT22;10089;47.876;8.346;2023-06-24T09:26:45;25.20;99.90
9699;DHT22;10089;47.876;8.346;2023-06-24T09:29:14;24.20;99.90
9699;DHT22;10089;47.876;8.346;2023-06-24T09:31:50;24.10;99.90
9699;DHT22;10089;47.876;8.346;2023-06-24T09:34:19;24.80;99.90
9699;DHT22;10089;47.876;8.346;2023-06-24T09:36:55;24.80;99.90
9699;DHT22;10089;47.876;8.346;2023-06-24T09:39:22;24.60;99.90
9699;DHT22;10089;47.876;8.346;2023-06-24T09:41:54;24.70;99.90
9699;DHT22;10089;47.876;8.346;2023-06-24T09:44:19;24.50;99.90
9699;DHT22;10089;47.876;8.346;2023-06-24T09:46:45;25.60;99.90
9699;DHT22;10089;47.876;8.346;2023-06-24T09:49:11;24.40;99.90
9699;DHT22;10089;47.876;8.346;2023-06-24T09:51:39;24.30;99.90
9699;DHT22;10089;47.876;8.346;2023-06-24T09:54:09;24.80;99.90
9699;DHT22;10089;47.876;8.346;2023-06-24T09:56:36;25.40;99.90
9699;DHT22;10089;47.876;8.346;2023-06-24T09:59:06;24.40;99.90
9699;DHT22;10089;47.876;8.346;2023-06-24T10:01:33;25.00;99.90
9699;DHT22;10089;47.876;8.346;2023-06-24T10:04:00;24.80;99.90
9699;DHT22;10089;47.876;8.346;2023-06-24T10:06:27;25.10;99.90
9699;DHT22;10089;47.876;8.346;2023-06-24T10:08:53;25.30;99.90
9699;DHT22;10089;47.876;8.346;2023-06-24T10:11:19;24.90;99.90
9699;DHT22;10089;47.876;8.346;2023-06-24T10:13:45;24.40;99.90
9699;DHT22;10089;47.876;8.346;2023-06-24T10:16:11;24.80;99.90
9699;DHT22;10089;47.876;8.346;2023-06-24T10:18:38;25.50;99.90
9699;DHT22;10089;47.876;8.346;2023-06-24T10:21:06;25.70;99.90
9699;DHT22;10089;47.876;8.346;2023-06-24T10:26:29;25.90;99.90
9699;DHT22;10089;47.876;8.346;2023-06-24T10:36:55;23.90;99.90
9699;DHT22;10089;47.876;8.346;2023-06-24T10:42:40;24.70;99.90
9699;DHT22;10089;47.876;8.346;2023-06-24T10:47:34;25.20;99.90
9699;DHT22;10089;47.876;8.346;2023-06-24T10:50:01;24.50;99.90
9699;DHT22;10089;47.876;8.346;2023-06-24T10:52:26;24.30;99.90
9699;DHT22;10089;47.876;8.346;2023-06-24T10:54:53;24.30;99.90
9699;DHT22;10089;47.876;8.346;2023-06-24T10:57:23;25.00;99.90
9699;DHT22;10089;47.876;8.346;2023-06-24T10:59:50;23.40;99.90
9699;DHT22;10089;47.876;8.346;2023-06-24T11:02:17;24.60;99.90
9699;DHT22;10089;47.876;8.346;2023-06-24T11:04:46;24.80;99.90
9699;DHT22;10089;47.876;8.346;2023-06-24T11:07:13;25.00;99.90
9699;DHT22;10089;47.876;8.346;2023-06-24T11:09:40;25.10;99.90
9699;DHT22;10089;47.876;8.346;2023-06-24T11:12:09;24.40;99.90
9699;DHT22;10089;47.876;8.346;2023-06-24T11:14:35;24.20;99.90
9699;DHT22;10089;47.876;8.346;2023-06-24T11:17:03;24.20;99.90
9699;DHT22;10089;47.876;8.346;2023-06-24T11:19:29;24.80;99.90
9699;DHT22;10089;47.876;8.346;2023-06-24T11:21:59;25.00;99.90
9699;DHT22;10089;47.876;8.346;2023-06-24T11:24:26;25.10;99.90
9699;DHT22;10089;47.876;8.346;2023-06-24T11:26:52;25.00;99.90
9699;DHT22;10089;47.876;8.346;2023-06-24T11:29:17;25.20;99.90
9699;DHT22;10089;47.876;8.346;2023-06-24T11:31:45;24.60;99.90
9699;DHT22;10089;47.876;8.346;2023-06-24T11:34:11;24.80;99.90
9699;DHT22;10089;47.876;8.346;2023-06-24T11:36:37;24.10;99.90
9699;DHT22;10089;47.876;8.346;2023-06-24T11:39:02;24.40;99.90
9699;DHT22;10089;47.876;8.346;2023-06-24T11:41:28;24.70;99.90
9699;DHT22;10089;47.876;8.346;2023-06-24T11:43:54;25.00;99.90
9699;DHT22;10089;47.876;8.346;2023-06-24T11:46:27;25.50;99.90
9699;DHT22;10089;47.876;8.346;2023-06-24T11:49:05;25.80;99.90
9699;DHT22;10089;47.876;8.346;2023-06-24T11:51:32;25.60;99.90
9699;DHT22;10089;47.876;8.346;2023-06-24T11:54:04;25.50;99.90
9699;DHT22;10089;47.876;8.346;2023-06-24T11:56:40;25.60;99.90
9699;DHT22;10089;47.876;8.346;2023-06-24T11:59:20;25.60;99.90
9699;DHT22;10089;47.876;8.346;2023-06-24T12:01:55;25.40;99.90
9699;DHT22;10089;47.876;8.346;2023-06-24T12:04:27;25.40;99.90
9699;DHT22;10089;47.876;8.346;2023-06-24T12:06:53;25.90;99.90
9699;DHT22;10089;47.876;8.346;2023-06-24T12:09:18;25.60;99.90
9699;DHT22;10089;47.876;8.346;2023-06-24T12:11:44;25.90;99.90
9699;DHT22;10089;47.876;8.346;2023-06-24T12:14:10;26.00;99.90
9699;DHT22;10089;47.876;8.346;2023-06-24T12:16:36;26.00;99.90
9699;DHT22;10089;47.876;8.346;2023-06-24T12:19:02;25.90;99.90
9699;DHT22;10089;47.876;8.346;2023-06-24T12:21:28;25.10;99.90
9699;DHT22;10089;47.876;8.346;2023-06-24T12:23:53;25.20;99.90
9699;DHT22;10089;47.876;8.346;2023-06-24T12:26:19;25.60;99.90
9699;DHT22;10089;47.876;8.346;2023-06-24T12:28:44;25.50;99.90
9699;DHT22;10089;47.876;8.346;2023-06-24T12:31:11;25.60;99.90
9699;DHT22;10089;47.876;8.346;2023-06-24T12:33:36;25.70;99.90
9699;DHT22;10089;47.876;8.346;2023-06-24T12:36:02;25.90;99.90
9699;DHT22;10089;47.876;8.346;2023-06-24T12:38:28;25.70;99.90
9699;DHT22;10089;47.876;8.346;2023-06-24T12:40:53;25.90;99.90
9699;DHT22;10089;47.876;8.346;2023-06-24T12:43:19;25.20;99.90
9699;DHT22;10089;47.876;8.346;2023-06-24T12:45:44;25.40;99.90
9699;DHT22;10089;47.876;8.346;2023-06-24T12:48:12;25.70;99.90
9699;DHT22;10089;47.876;8.346;2023-06-24T12:50:38;26.00;99.90
9699;DHT22;10089;47.876;8.346;2023-06-24T12:53:03;25.50;99.90
9699;DHT22;10089;47.876;8.346;2023-06-24T12:55:29;25.60;99.90
9699;DHT22;10089;47.876;8.346;2023-06-24T12:57:55;25.80;99.90
9699;DHT22;10089;47.876;8.346;2023-06-24T13:00:22;25.80;99.90
9699;DHT22;10089;47.876;8.346;2023-06-24T13:02:48;25.40;99.90
9699;DHT22;10089;47.876;8.346;2023-06-24T13:05:15;25.80;99.90
9699;DHT22;10089;47.876;8.346;2023-06-24T13:07:41;25.80;99.90
9699;DHT22;10089;47.876;8.346;2023-06-24T13:10:06;26.00;99.90
9699;DHT22;10089;47.876;8.346;2023-06-24T13:12:33;26.00;99.90
9699;DHT22;10089;47.876;8.346;2023-06-24T13:14:59;25.40;99.90
9699;DHT22;10089;47.876;8.346;2023-06-24T13:17:25;25.40;99.90
9699;DHT22;10089;47.876;8.346;2023-06-24T13:19:51;25.50;99.90
9699;DHT22;10089;47.876;8.346;2023-06-24T13:22:17;24.40;94.30
9699;DHT22;10089;47.876;8.346;2023-06-24T13:24:44;25.30;99.90
9699;DHT22;10089;47.876;8.346;2023-06-24T13:27:10;25.00;99.90
9699;DHT22;10089;47.876;8.346;2023-06-24T13:29:35;25.00;99.90
9699;DHT22;10089;47.876;8.346;2023-06-24T13:32:01;25.00;99.90
9699;DHT22;10089;47.876;8.346;2023-06-24T13:34:27;25.10;99.90
9699;DHT22;10089;47.876;8.346;2023-06-24T13:36:52;25.20;99.90
9699;DHT22;10089;47.876;8.346;2023-06-24T13:39:18;25.00;99.90
9699;DHT22;10089;47.876;8.346;2023-06-24T13:41:47;25.00;99.90
9699;DHT22;10089;47.876;8.346;2023-06-24T13:44:13;24.80;99.30
9699;DHT22;10089;47.876;8.346;2023-06-24T13:46:39;25.20;95.20
9699;DHT22;10089;47.876;8.346;2023-06-24T13:49:04;25.70;99.90
9699;DHT22;10089;47.876;8.346;2023-06-24T13:51:30;25.30;99.90
9699;DHT22;10089;47.876;8.346;2023-06-24T13:53:56;25.10;99.90
9699;DHT22;10089;47.876;8.346;2023-06-24T13:56:23;25.70;99.90
9699;DHT22;10089;47.876;8.346;2023-06-24T13:58:49;25.80;99.90
9699;DHT22;10089;47.876;8.346;2023-06-24T14:01:15;25.40;99.90
9699;DHT22;10089;47.876;8.346;2023-06-24T14:03:41;25.50;90.30
9699;DHT22;10089;47.876;8.346;2023-06-24T14:06:07;25.20;99.90
9699;DHT22;10089;47.876;8.346;2023-06-24T14:08:33;25.50;98.80
9699;DHT22;10089;47.876;8.346;2023-06-24T14:10:59;25.00;99.90
9699;DHT22;10089;47.876;8.346;2023-06-24T14:13:27;24.80;99.90
9699;DHT22;10089;47.876;8.346;2023-06-24T14:15:54;24.80;98.80
9699;DHT22;10089;47.876;8.346;2023-06-24T14:18:20;24.40;99.90
9699;DHT22;10089;47.876;8.346;2023-06-24T14:20:46;24.60;99.90
9699;DHT22;10089;47.876;8.346;2023-06-24T14:23:11;24.70;96.60
9699;DHT22;10089;47.876;8.346;2023-06-24T14:25:37;25.20;99.90
9699;DHT22;10089;47.876;8.346;2023-06-24T14:28:06;24.80;97.80
9699;DHT22;10089;47.876;8.346;2023-06-24T14:30:32;25.40;99.90
9699;DHT22;10089;47.876;8.346;2023-06-24T14:32:58;24.90;75.50
9699;DHT22;10089;47.876;8.346;2023-06-24T14:35:23;24.80;93.00
9699;DHT22;10089;47.876;8.346;2023-06-24T14:37:49;24.00;79.10
9699;DHT22;10089;47.876;8.346;2023-06-24T14:40:14;24.40;87.70
9699;DHT22;10089;47.876;8.346;2023-06-24T14:42:40;24.30;93.20
9699;DHT22;10089;47.876;8.346;2023-06-24T14:45:06;24.50;92.40
9699;DHT22;10089;47.876;8.346;2023-06-24T14:47:32;24.40;93.10
9699;DHT22;10089;47.876;8.346;2023-06-24T14:49:57;24.20;99.90
9699;DHT22;10089;47.876;8.346;2023-06-24T14:52:23;24.20;99.90
9699;DHT22;10089;47.876;8.346;2023-06-24T14:54:49;25.30;99.90
9699;DHT22;10089;47.876;8.346;2023-06-24T14:57:15;24.90;99.90
9699;DHT22;10089;47.876;8.346;2023-06-24T14:59:43;24.40;99.90
9699;DHT22;10089;47.876;8.346;2023-06-24T15:02:09;24.10;99.90
9699;DHT22;10089;47.876;8.346;2023-06-24T15:04:37;24.60;99.90
9699;DHT22;10089;47.876;8.346;2023-06-24T15:07:04;24.40;99.90
9699;DHT22;10089;47.876;8.346;2023-06-24T15:09:29;24.40;99.90
9699;DHT22;10089;47.876;8.346;2023-06-24T15:11:55;24.70;99.90
9699;DHT22;10089;47.876;8.346;2023-06-24T15:14:20;24.50;99.90
9699;DHT22;10089;47.876;8.346;2023-06-24T15:16:46;24.80;99.90
9699;DHT22;10089;47.876;8.346;2023-06-24T15:19:12;24.40;99.90
9699;DHT22;10089;47.876;8.346;2023-06-24T15:21:38;24.20;99.90
9699;DHT22;10089;47.876;8.346;2023-06-24T15:24:04;24.10;99.90
9699;DHT22;10089;47.876;8.346;2023-06-24T15:26:29;24.50;99.90
9699;DHT22;10089;47.876;8.346;2023-06-24T15:28:55;24.90;99.90
9699;DHT22;10089;47.876;8.346;2023-06-24T15:31:20;24.10;99.90
9699;DHT22;10089;47.876;8.346;2023-06-24T15:33:46;24.00;99.90
9699;DHT22;10089;47.876;8.346;2023-06-24T15:36:12;23.60;99.90
9699;DHT22;10089;47.876;8.346;2023-06-24T15:38:37;23.80;99.90
9699;DHT22;10089;47.876;8.346;2023-06-24T15:41:03;24.10;99.90
9699;DHT22;10089;47.876;8.346;2023-06-24T15:43:29;23.90;99.90
9699;DHT22;10089;47.876;8.346;2023-06-24T15:45:54;23.90;99.90
9699;DHT22;10089;47.876;8.346;2023-06-24T15:48:20;23.80;99.90
9699;DHT22;10089;47.876;8.346;2023-06-24T15:50:45;23.70;99.90
9699;DHT22;10089;47.876;8.346;2023-06-24T15:53:11;23.80;99.90
9699;DHT22;10089;47.876;8.346;2023-06-24T15:55:37;23.80;99.90
9699;DHT22;10089;47.876;8.346;2023-06-24T15:58:02;24.10;99.90
9699;DHT22;10089;47.876;8.346;2023-06-24T16:00:28;23.90;99.90
9699;DHT22;10089;47.876;8.346;2023-06-24T16:02:53;24.40;99.90
9699;DHT22;10089;47.876;8.346;2023-06-24T16:05:19;23.80;99.90
9699;DHT22;10089;47.876;8.346;2023-06-24T16:07:45;23.40;99.90
9699;DHT22;10089;47.876;8.346;2023-06-24T16:10:10;23.30;99.90
9699;DHT22;10089;47.876;8.346;2023-06-24T16:12:36;23.60;99.90
9699;DHT22;10089;47.876;8.346;2023-06-24T16:15:02;23.40;99.90
9699;DHT22;10089;47.876;8.346;2023-06-24T16:17:28;23.30;99.90